createdAt,value
2018-06-16T00:00:25.451Z,17.20
2018-06-16T00:02:52.391Z,17.30
2018-06-16T00:05:19.325Z,17.30
2018-06-16T00:07:46.270Z,17.30
2018-06-16T00:10:13.187Z,17.40
2018-06-16T00:12:40.122Z,17.40
2018-06-16T00:15:07.170Z,17.40
2018-06-16T00:17:34.116Z,17.40
2018-06-16T00:20:01.082Z,17.40
2018-06-16T00:22:28.007Z,17.40
2018-06-16T00:24:59.873Z,17.40
2018-06-16T00:27:27.762Z,17.40
2018-06-16T00:29:54.886Z,17.40
2018-06-16T00:32:22.024Z,17.40
2018-06-16T00:34:48.933Z,17.40
2018-06-16T00:37:15.955Z,17.40
2018-06-16T00:39:43.114Z,17.40
2018-06-16T00:42:10.154Z,17.40
2018-06-16T00:44:37.070Z,17.40
2018-06-16T00:47:04.018Z,17.30
2018-06-16T00:49:30.957Z,17.40
2018-06-16T00:51:57.930Z,17.40
2018-06-16T00:54:24.842Z,17.40
2018-06-16T00:56:57.733Z,17.40
2018-06-16T00:59:24.642Z,17.40
2018-06-16T01:01:51.586Z,17.40
2018-06-16T01:04:18.526Z,17.40
2018-06-16T01:06:45.470Z,17.40
2018-06-16T01:09:12.388Z,17.40
2018-06-16T01:11:40.338Z,17.40
2018-06-16T01:14:07.489Z,17.40
2018-06-16T01:16:35.051Z,17.40
2018-06-16T01:19:01.981Z,17.40
2018-06-16T01:21:28.929Z,17.40
2018-06-16T01:23:56.102Z,17.40
2018-06-16T01:26:23.037Z,17.40
2018-06-16T01:28:49.962Z,17.40
2018-06-16T01:31:16.869Z,17.40
2018-06-16T01:33:43.818Z,17.40
2018-06-16T01:36:10.742Z,17.40
2018-06-16T01:38:38.014Z,17.40
2018-06-16T01:41:05.241Z,17.40
2018-06-16T01:43:32.177Z,17.50
2018-06-16T01:45:59.084Z,17.50
2018-06-16T01:48:26.062Z,17.50
2018-06-16T01:50:52.977Z,17.50
2018-06-16T01:53:19.922Z,17.50
2018-06-16T01:55:46.850Z,17.50
2018-06-16T01:58:13.785Z,17.50
2018-06-16T02:00:40.706Z,17.50
2018-06-16T02:03:07.662Z,17.50
2018-06-16T02:13:30.728Z,17.50
2018-06-16T02:15:57.645Z,17.50
2018-06-16T02:18:24.951Z,17.30
2018-06-16T02:20:52.210Z,17.30
2018-06-16T02:23:19.866Z,17.30
2018-06-16T02:25:47.054Z,17.30
2018-06-16T02:30:41.221Z,17.40
2018-06-16T02:33:08.139Z,17.40
2018-06-16T02:35:35.086Z,17.30
2018-06-16T02:38:02.201Z,17.30
2018-06-16T02:40:29.146Z,17.30
2018-06-16T02:42:56.058Z,17.40
2018-06-16T02:45:23.038Z,17.40
2018-06-16T02:47:49.961Z,17.40
2018-06-16T02:50:16.932Z,17.40
2018-06-16T02:52:43.893Z,17.40
2018-06-16T02:55:10.834Z,17.30
2018-06-16T02:57:37.754Z,17.30
2018-06-16T03:02:32.054Z,17.30
2018-06-16T03:04:59.022Z,17.30
2018-06-16T03:07:25.930Z,17.30
2018-06-16T03:09:52.874Z,17.30
2018-06-16T03:12:19.850Z,17.20
2018-06-16T03:14:46.830Z,17.20
2018-06-16T03:17:13.750Z,17.20
2018-06-16T03:19:40.686Z,17.10
2018-06-16T03:22:07.793Z,17.10
2018-06-16T03:24:34.742Z,17.00
2018-06-16T03:27:01.901Z,17.00
2018-06-16T03:29:28.817Z,17.00
2018-06-16T03:31:55.759Z,17.00
2018-06-16T03:34:22.693Z,17.00
2018-06-16T03:36:49.634Z,17.00
2018-06-16T03:39:16.581Z,17.00
2018-06-16T03:41:43.530Z,17.10
2018-06-16T03:44:10.450Z,17.10
2018-06-16T03:46:37.390Z,17.10
2018-06-16T03:49:04.602Z,17.20
2018-06-16T03:51:31.547Z,17.30
2018-06-16T03:53:58.597Z,17.40
2018-06-16T03:56:25.542Z,17.50
2018-06-16T03:58:52.453Z,17.60
2018-06-16T04:01:19.393Z,17.70
2018-06-16T04:03:46.374Z,17.80
2018-06-16T04:06:13.337Z,17.90
2018-06-16T04:08:40.317Z,18.00
2018-06-16T04:11:07.253Z,18.10
2018-06-16T04:16:01.314Z,18.30
2018-06-16T04:18:28.226Z,18.40
2018-06-16T04:20:55.146Z,18.50
2018-06-16T04:23:22.122Z,18.70
2018-06-16T04:25:49.198Z,18.80
2018-06-16T04:28:16.363Z,19.00
2018-06-16T04:30:43.273Z,19.10
2018-06-16T04:33:10.250Z,19.30
2018-06-16T04:35:37.149Z,19.40
2018-06-16T04:38:04.089Z,19.50
2018-06-16T04:40:31.001Z,19.70
2018-06-16T04:42:57.944Z,19.90
2018-06-16T04:45:24.910Z,20.00
2018-06-16T04:47:51.830Z,20.20
2018-06-16T04:50:18.745Z,20.30
2018-06-16T04:52:45.688Z,20.40
2018-06-16T04:55:12.598Z,20.50
2018-06-16T04:57:39.537Z,20.50
2018-06-16T05:00:06.458Z,20.60
2018-06-16T05:02:33.390Z,20.60
2018-06-16T05:05:00.325Z,20.70
2018-06-16T05:07:27.259Z,20.70
2018-06-16T05:09:54.174Z,20.90
2018-06-16T05:12:21.114Z,21.00
2018-06-16T05:14:48.646Z,21.10
2018-06-16T05:17:15.626Z,21.20
2018-06-16T05:22:09.478Z,21.40
2018-06-16T05:24:36.470Z,21.40
2018-06-16T05:27:03.426Z,21.40
2018-06-16T05:29:30.350Z,21.50
2018-06-16T05:31:57.289Z,21.50
2018-06-16T05:36:51.165Z,21.60
2018-06-16T05:39:18.126Z,21.60
2018-06-16T05:41:45.070Z,21.70
2018-06-16T05:44:12.002Z,21.70
2018-06-16T05:46:39.051Z,21.70
2018-06-16T05:49:05.998Z,21.60
2018-06-16T05:51:33.258Z,21.50
2018-06-16T05:54:00.198Z,21.30
2018-06-16T05:56:27.170Z,21.20
2018-06-16T05:58:54.089Z,21.20
2018-06-16T06:01:21.118Z,21.30
2018-06-16T06:03:48.038Z,21.40
2018-06-16T06:06:14.994Z,21.50
2018-06-16T06:08:41.961Z,21.70
2018-06-16T06:11:08.873Z,21.90
2018-06-16T06:13:35.841Z,22.10
2018-06-16T06:16:02.887Z,22.20
2018-06-16T06:18:29.858Z,22.30
2018-06-16T06:20:56.798Z,22.50
2018-06-16T06:23:23.742Z,22.70
2018-06-16T06:25:50.719Z,23.00
2018-06-16T06:28:17.661Z,23.20
2018-06-16T06:30:44.923Z,23.10
2018-06-16T06:33:11.865Z,23.30
2018-06-16T06:35:38.809Z,23.20
2018-06-16T06:38:05.755Z,23.50
2018-06-16T06:40:32.670Z,23.40
2018-06-16T06:42:59.614Z,23.50
2018-06-16T06:45:26.531Z,23.60
2018-06-16T06:47:53.469Z,23.70
2018-06-16T06:50:20.390Z,23.90
2018-06-16T06:52:47.331Z,24.20
2018-06-16T06:57:41.137Z,24.40
2018-06-16T07:00:08.082Z,24.30
2018-06-16T07:02:35.001Z,24.20
2018-06-16T07:05:01.970Z,24.10
2018-06-16T07:07:28.886Z,24.00
2018-06-16T07:09:55.846Z,24.00
2018-06-16T07:12:22.771Z,23.90
2018-06-16T07:14:49.722Z,23.70
2018-06-16T07:17:16.712Z,23.90
2018-06-16T07:19:43.929Z,24.30
2018-06-16T07:22:10.885Z,24.50
2018-06-16T07:24:37.825Z,24.50
2018-06-16T07:27:04.963Z,24.90
2018-06-16T07:29:31.913Z,25.30
2018-06-16T07:31:58.840Z,25.50
2018-06-16T07:34:25.785Z,25.80
2018-06-16T07:36:52.708Z,25.60
2018-06-16T07:39:19.651Z,25.50
2018-06-16T07:41:46.577Z,25.80
2018-06-16T07:44:13.530Z,25.70
2018-06-16T07:46:40.446Z,25.60
2018-06-16T07:49:07.397Z,26.00
2018-06-16T07:51:34.341Z,26.10
2018-06-16T07:54:01.262Z,26.30
2018-06-16T07:56:28.202Z,26.50
2018-06-16T07:58:55.358Z,26.10
2018-06-16T08:01:22.285Z,26.30
2018-06-16T08:03:49.210Z,26.30
2018-06-16T08:06:16.182Z,26.60
2018-06-16T08:08:43.100Z,26.50
2018-06-16T08:11:10.035Z,26.40
2018-06-16T08:13:37.106Z,26.10
2018-06-16T08:16:04.054Z,26.10
2018-06-16T08:18:31.226Z,26.10
2018-06-16T08:20:58.239Z,26.10
2018-06-16T08:23:25.153Z,26.60
2018-06-16T08:25:52.186Z,26.90
2018-06-16T08:28:19.101Z,27.50
2018-06-16T08:30:46.038Z,28.00
2018-06-16T08:33:12.953Z,28.40
2018-06-16T08:35:39.891Z,29.10
2018-06-16T08:38:06.813Z,28.80
2018-06-16T08:40:33.801Z,28.20
2018-06-16T08:43:00.718Z,28.10
2018-06-16T08:45:27.653Z,28.20
2018-06-16T08:50:21.481Z,28.30
2018-06-16T08:52:48.429Z,28.80
2018-06-16T08:55:15.461Z,29.80
2018-06-16T08:57:42.379Z,30.50
2018-06-16T09:00:09.322Z,30.20
2018-06-16T09:02:36.251Z,30.50
2018-06-16T09:05:03.261Z,30.70
2018-06-16T09:07:30.209Z,31.00
2018-06-16T09:09:57.605Z,30.90
2018-06-16T09:12:24.518Z,30.90
2018-06-16T09:14:51.451Z,31.10
2018-06-16T09:17:18.390Z,30.70
2018-06-16T09:19:45.330Z,30.50
2018-06-16T09:22:12.242Z,31.30
2018-06-16T09:24:39.191Z,32.20
2018-06-16T09:27:06.111Z,33.00
2018-06-16T09:29:33.062Z,32.60
2018-06-16T09:31:59.983Z,32.50
2018-06-16T09:34:26.902Z,32.50
2018-06-16T09:36:53.842Z,31.40
2018-06-16T09:39:20.761Z,31.00
2018-06-16T09:41:47.697Z,30.00
2018-06-16T09:46:41.536Z,29.10
2018-06-16T09:49:08.441Z,29.40
2018-06-16T09:51:35.686Z,29.80
2018-06-16T09:54:02.603Z,29.50
2018-06-16T09:56:29.546Z,29.20
2018-06-16T09:58:56.489Z,28.90
2018-06-16T10:01:23.430Z,28.60
2018-06-16T10:03:50.769Z,28.20
2018-06-16T10:06:17.738Z,28.10
2018-06-16T10:08:44.649Z,28.30
2018-06-16T10:11:11.733Z,28.80
2018-06-16T10:13:38.658Z,28.70
2018-06-16T10:16:05.732Z,28.60
2018-06-16T10:18:32.671Z,28.60
2018-06-16T10:20:59.595Z,28.90
2018-06-16T10:23:26.538Z,29.00
2018-06-16T10:25:53.449Z,29.10
2018-06-16T10:28:20.401Z,29.30
2018-06-16T10:30:47.349Z,30.60
2018-06-16T10:33:14.285Z,31.10
2018-06-16T10:35:41.202Z,32.30
2018-06-16T10:38:08.141Z,33.90
2018-06-16T10:40:35.050Z,33.50
2018-06-16T10:43:01.974Z,33.10
2018-06-16T10:45:28.917Z,31.70
2018-06-16T10:47:55.833Z,31.00
2018-06-16T10:50:22.769Z,30.60
2018-06-16T10:52:49.696Z,29.60
2018-06-16T10:55:16.641Z,29.60
2018-06-16T10:57:43.555Z,30.30
2018-06-16T11:00:10.498Z,30.90
2018-06-16T11:02:37.418Z,31.30
2018-06-16T11:07:31.302Z,32.50
2018-06-16T11:09:58.241Z,32.60
2018-06-16T11:12:25.173Z,32.10
2018-06-16T11:14:52.114Z,33.30
2018-06-16T11:17:19.034Z,34.10
2018-06-16T11:19:45.982Z,33.90
2018-06-16T11:22:12.962Z,33.50
2018-06-16T11:24:39.909Z,33.00
2018-06-16T11:27:06.821Z,32.50
2018-06-16T11:29:33.794Z,31.90
2018-06-16T11:32:01.054Z,30.90
2018-06-16T11:34:28.225Z,30.30
2018-06-16T11:36:55.159Z,29.70
2018-06-16T11:39:22.102Z,29.30
2018-06-16T11:41:49.017Z,29.10
2018-06-16T11:44:16.221Z,29.60
2018-06-16T11:46:43.137Z,29.70
2018-06-16T11:49:10.083Z,29.60
2018-06-16T11:51:37.002Z,29.20
2018-06-16T11:54:03.939Z,28.90
2018-06-16T11:56:30.853Z,28.90
2018-06-16T11:58:57.999Z,29.00
2018-06-16T12:01:24.910Z,29.50
2018-06-16T12:03:51.897Z,30.10
2018-06-16T12:06:18.830Z,29.80
2018-06-16T12:08:45.778Z,29.60
2018-06-16T12:11:12.692Z,29.50
2018-06-16T12:13:39.636Z,29.60
2018-06-16T12:16:06.686Z,30.00
2018-06-16T12:18:33.633Z,31.30
2018-06-16T12:21:00.554Z,33.10
2018-06-16T12:23:27.826Z,34.80
2018-06-16T12:25:54.737Z,35.90
2018-06-16T12:28:21.654Z,36.30
2018-06-16T12:30:48.634Z,37.10
2018-06-16T12:33:15.550Z,36.50
2018-06-16T12:35:42.489Z,36.40
2018-06-16T12:38:09.409Z,35.50
2018-06-16T12:40:36.354Z,35.70
2018-06-16T12:43:03.280Z,35.90
2018-06-16T12:45:30.238Z,35.50
2018-06-16T12:47:57.193Z,35.90
2018-06-16T12:50:24.573Z,36.50
2018-06-16T12:52:51.502Z,36.00
2018-06-16T12:55:18.450Z,35.40
2018-06-16T12:57:45.421Z,34.60
2018-06-16T13:00:12.339Z,33.80
2018-06-16T13:02:39.262Z,32.00
2018-06-16T13:05:06.238Z,31.60
2018-06-16T13:07:33.186Z,31.90
2018-06-16T13:10:00.131Z,31.80
2018-06-16T13:12:27.050Z,31.40
2018-06-16T13:14:54.229Z,30.90
2018-06-16T13:17:21.146Z,30.30
2018-06-16T13:19:48.329Z,29.60
2018-06-16T13:22:15.274Z,29.20
2018-06-16T13:24:42.188Z,29.00
2018-06-16T13:27:09.126Z,28.90
2018-06-16T13:29:36.039Z,28.90
2018-06-16T13:32:02.978Z,28.90
2018-06-16T13:34:29.898Z,28.70
2018-06-16T13:39:23.729Z,28.80
2018-06-16T13:41:50.670Z,29.00
2018-06-16T13:44:17.594Z,29.30
2018-06-16T13:46:44.539Z,29.30
2018-06-16T13:49:11.453Z,29.30
2018-06-16T13:51:38.416Z,29.20
2018-06-16T13:54:05.374Z,29.00
2018-06-16T13:56:32.290Z,28.80
2018-06-16T13:58:59.241Z,28.20
2018-06-16T14:01:26.149Z,27.90
2018-06-16T14:03:53.079Z,28.10
2018-06-16T14:06:20.042Z,27.90
2018-06-16T14:08:46.958Z,27.70
2018-06-16T14:11:13.901Z,27.60
2018-06-16T14:13:40.821Z,27.40
2018-06-16T14:16:07.761Z,27.50
2018-06-16T14:18:34.683Z,28.00
2018-06-16T14:21:01.631Z,28.50
2018-06-16T14:23:28.550Z,28.80
2018-06-16T14:25:55.500Z,28.70
2018-06-16T14:28:22.410Z,28.60
2018-06-16T14:30:49.353Z,28.50
2018-06-16T14:33:16.274Z,28.20
2018-06-16T14:35:43.290Z,28.30
2018-06-16T14:38:10.205Z,29.20
2018-06-16T14:40:37.157Z,29.80
2018-06-16T14:43:04.082Z,30.00
2018-06-16T14:45:31.006Z,29.50
2018-06-16T14:47:58.217Z,28.90
2018-06-16T14:50:25.135Z,28.70
2018-06-16T14:52:52.074Z,28.50
2018-06-16T14:55:19.589Z,28.30
2018-06-16T14:57:46.782Z,28.50
2018-06-16T15:00:13.706Z,28.70
2018-06-16T15:02:40.655Z,29.00
2018-06-16T15:05:07.642Z,29.30
2018-06-16T15:07:34.582Z,29.60
2018-06-16T15:10:01.517Z,29.10
2018-06-16T15:12:28.458Z,28.80
2018-06-16T15:14:55.645Z,28.70
2018-06-16T15:17:22.587Z,28.70
2018-06-16T15:19:49.517Z,28.30
2018-06-16T15:22:16.459Z,28.00
2018-06-16T15:24:44.150Z,27.90
2018-06-16T15:27:11.081Z,28.00
2018-06-16T15:29:37.994Z,27.60
2018-06-16T15:32:05.186Z,27.40
2018-06-16T15:34:32.097Z,27.50
2018-06-16T15:36:59.038Z,28.10
2018-06-16T15:41:52.910Z,28.50
2018-06-16T15:44:19.822Z,28.20
2018-06-16T15:46:47.004Z,28.00
2018-06-16T15:49:13.933Z,27.70
2018-06-16T15:51:40.846Z,27.40
2018-06-16T15:54:07.780Z,27.00
2018-06-16T15:56:34.695Z,26.70
2018-06-16T15:59:01.635Z,26.50
2018-06-16T16:01:28.550Z,26.50
2018-06-16T16:03:55.489Z,26.30
2018-06-16T16:06:22.438Z,26.00
2018-06-16T16:08:49.396Z,25.80
2018-06-16T16:11:16.310Z,25.60
2018-06-16T16:13:43.245Z,25.40
2018-06-16T16:16:10.158Z,25.30
2018-06-16T16:18:37.097Z,25.20
2018-06-16T16:21:04.345Z,25.10
2018-06-16T16:23:31.292Z,25.10
2018-06-16T16:25:58.205Z,25.00
2018-06-16T16:28:25.145Z,25.00
2018-06-16T16:30:52.058Z,24.90
2018-06-16T16:33:19.005Z,25.00
2018-06-16T16:38:12.841Z,25.00
2018-06-16T16:43:13.492Z,25.40
2018-06-16T16:45:40.417Z,25.50
2018-06-16T16:48:07.360Z,25.50
2018-06-16T16:50:34.278Z,25.50
2018-06-16T16:53:01.226Z,25.60
2018-06-16T16:55:28.406Z,25.60
2018-06-16T16:57:55.350Z,25.60
2018-06-16T17:00:22.313Z,25.60
2018-06-16T17:02:49.241Z,25.60
2018-06-16T17:05:16.247Z,25.60
2018-06-16T17:07:43.190Z,25.60
2018-06-16T17:10:10.098Z,25.60
2018-06-16T17:12:37.032Z,25.60
2018-06-16T17:15:03.987Z,25.60
2018-06-16T17:17:30.926Z,25.60
2018-06-16T17:19:57.837Z,25.60
2018-06-16T17:22:24.773Z,25.60
2018-06-16T17:24:51.825Z,25.60
2018-06-16T17:27:19.034Z,25.70
2018-06-16T17:29:45.951Z,25.80
2018-06-16T17:32:12.877Z,25.80
2018-06-16T17:34:39.861Z,25.70
2018-06-16T17:37:06.769Z,25.60
2018-06-16T17:39:33.703Z,25.60
2018-06-16T17:42:00.618Z,25.40
2018-06-16T17:44:27.798Z,25.40
2018-06-16T17:46:54.709Z,25.30
2018-06-16T17:49:21.641Z,25.20
2018-06-16T17:51:48.554Z,25.10
2018-06-16T17:54:15.498Z,25.00
2018-06-16T17:56:42.418Z,24.80
2018-06-16T17:59:09.361Z,24.70
2018-06-16T18:01:36.282Z,24.60
2018-06-16T18:04:03.221Z,24.60
2018-06-16T18:06:30.166Z,24.60
2018-06-16T18:08:57.105Z,24.70
2018-06-16T18:11:24.026Z,24.70
2018-06-16T18:13:50.961Z,24.60
2018-06-16T18:16:17.873Z,24.60
2018-06-16T18:18:44.810Z,24.60
2018-06-16T18:21:12.082Z,24.60
2018-06-16T18:23:39.035Z,24.70
2018-06-16T18:26:06.262Z,24.60
2018-06-16T18:28:33.389Z,24.60
2018-06-16T18:31:00.326Z,24.50
2018-06-16T18:33:27.237Z,24.40
2018-06-16T18:35:54.178Z,24.40
2018-06-16T18:38:21.413Z,24.20
2018-06-16T18:40:48.327Z,24.10
2018-06-16T18:43:15.274Z,24.00
2018-06-16T18:45:42.226Z,23.90
2018-06-16T18:48:09.366Z,23.80
2018-06-16T18:50:36.350Z,23.70
2018-06-16T18:53:03.277Z,23.60
2018-06-16T18:55:31.078Z,23.50
2018-06-16T18:57:58.001Z,23.30
2018-06-16T19:00:24.938Z,23.30
2018-06-16T19:02:51.863Z,23.20
2018-06-16T19:05:18.829Z,23.00
2018-06-16T19:07:45.751Z,22.90
2018-06-16T19:10:12.689Z,22.80
2018-06-16T19:12:39.638Z,22.70
2018-06-16T19:15:06.697Z,22.50
2018-06-16T19:17:33.633Z,22.40
2018-06-16T19:20:00.589Z,22.20
2018-06-16T19:22:27.525Z,22.00
2018-06-16T19:24:54.438Z,21.90
2018-06-16T19:27:21.373Z,21.80
2018-06-16T19:29:48.292Z,21.70
2018-06-16T19:32:15.259Z,21.60
2018-06-16T19:34:42.209Z,21.50
2018-06-16T19:37:09.143Z,21.40
2018-06-16T19:39:36.399Z,21.30
2018-06-16T19:42:03.317Z,21.30
2018-06-16T19:44:30.258Z,21.10
2018-06-16T19:46:57.167Z,21.00
2018-06-16T19:49:24.381Z,20.90
2018-06-16T19:51:51.369Z,20.80
2018-06-16T19:54:18.280Z,20.80
2018-06-16T19:56:45.204Z,20.70
2018-06-16T19:59:12.470Z,20.70
2018-06-16T20:01:39.385Z,20.70
2018-06-16T20:04:06.327Z,20.60
2018-06-16T20:06:33.282Z,20.60
2018-06-16T20:09:00.245Z,20.60
2018-06-16T20:11:27.169Z,20.50
2018-06-16T20:13:54.481Z,20.50
2018-06-16T20:16:21.431Z,20.50
2018-06-16T20:18:48.354Z,20.40
2018-06-16T20:21:15.304Z,20.40
2018-06-16T20:23:42.225Z,20.40
2018-06-16T20:26:09.181Z,20.40
2018-06-16T20:28:36.097Z,20.30
2018-06-16T20:31:03.043Z,20.30
2018-06-16T20:33:29.958Z,20.30
2018-06-16T20:35:56.903Z,20.30
2018-06-16T20:38:23.838Z,20.20
2018-06-16T20:40:50.797Z,20.20
2018-06-16T20:43:17.742Z,20.20
2018-06-16T20:45:44.686Z,20.10
2018-06-16T20:48:11.604Z,20.10
2018-06-16T20:50:38.541Z,20.10
2018-06-16T20:53:05.485Z,20.00
2018-06-16T20:55:32.430Z,20.00
2018-06-16T20:57:59.354Z,20.00
2018-06-16T21:00:26.297Z,19.90
2018-06-16T21:02:53.209Z,19.90
2018-06-16T21:05:20.169Z,19.90
2018-06-16T21:07:47.081Z,19.80
2018-06-16T21:10:14.014Z,19.80
2018-06-16T21:12:40.963Z,19.80
2018-06-16T21:15:07.904Z,19.70
2018-06-16T21:17:34.813Z,19.70
2018-06-16T21:20:01.771Z,19.60
2018-06-16T21:22:28.686Z,19.60
2018-06-16T21:24:55.629Z,19.60
2018-06-16T21:27:22.546Z,19.50
2018-06-16T21:29:49.485Z,19.50
2018-06-16T21:32:16.397Z,19.50
2018-06-16T21:34:43.422Z,19.40
2018-06-16T21:37:10.360Z,19.30
2018-06-16T21:39:37.300Z,19.30
2018-06-16T21:42:04.206Z,19.20
2018-06-16T21:44:31.171Z,19.20
2018-06-16T21:46:58.094Z,19.20
2018-06-16T21:49:25.034Z,19.20
2018-06-16T21:51:51.949Z,19.30
2018-06-16T21:54:18.898Z,19.30
2018-06-16T21:56:46.115Z,19.30
2018-06-16T21:59:13.050Z,19.30
2018-06-16T22:01:40.251Z,19.30
2018-06-16T22:04:07.198Z,19.20
2018-06-16T22:06:34.528Z,19.20
2018-06-16T22:09:01.470Z,19.20
2018-06-16T22:11:28.386Z,19.20
2018-06-16T22:13:55.326Z,19.20
2018-06-16T22:16:22.281Z,19.20
2018-06-16T22:18:49.296Z,19.10
2018-06-16T22:21:16.217Z,19.10
2018-06-16T22:23:43.358Z,19.00
2018-06-16T22:26:10.264Z,18.90
2018-06-16T22:28:37.183Z,18.90
2018-06-16T22:31:04.193Z,18.80
2018-06-16T22:33:31.105Z,18.80
2018-06-16T22:35:58.064Z,18.70
2018-06-16T22:38:24.986Z,18.70
2018-06-16T22:40:51.929Z,18.60
2018-06-16T22:43:18.841Z,18.60
2018-06-16T22:45:45.773Z,18.60
2018-06-16T22:48:12.689Z,18.50
2018-06-16T22:50:39.902Z,18.50
2018-06-16T22:53:06.826Z,18.50
2018-06-16T22:55:33.761Z,18.40
2018-06-16T22:58:00.678Z,18.30
2018-06-16T23:00:28.298Z,18.30
2018-06-16T23:02:56.063Z,18.20
2018-06-16T23:07:50.026Z,18.20
2018-06-16T23:10:16.961Z,18.10
2018-06-16T23:12:44.022Z,18.10
2018-06-16T23:15:10.986Z,18.10
2018-06-16T23:17:37.909Z,18.10
2018-06-16T23:20:04.981Z,18.10
2018-06-16T23:22:31.910Z,18.10
2018-06-16T23:24:58.966Z,18.00
2018-06-16T23:27:25.889Z,18.00
2018-06-16T23:29:52.874Z,18.00
2018-06-16T23:32:19.826Z,17.90
2018-06-16T23:34:46.742Z,17.90
2018-06-16T23:37:13.681Z,17.90
2018-06-16T23:39:40.842Z,17.90
2018-06-16T23:42:07.786Z,17.90
2018-06-16T23:44:34.705Z,18.00
2018-06-16T23:47:01.641Z,18.00
2018-06-16T23:49:28.562Z,18.00
2018-06-16T23:51:55.501Z,18.00
2018-06-16T23:54:22.413Z,18.00
2018-06-16T23:56:49.355Z,18.10
2018-06-16T23:59:16.277Z,18.10
